Time;durP1;ratioP1;P1;durP2;ratioP2;P2;SDS_P1;SDS_P2;PMS_P1;PMS_P2;Temp;Humidity;BMP_temperature;BMP_pressure;BME280_temperature;BME280_humidity;BME280_pressure;Samples;Min_cycle;Max_cycle;Signal;HPM_P1;HPM_P2
2023/05/04 00:00:10;;;;;;;;;11.00;10.00;;;;;-147.17;100.00;19671.84;5075065;27;50909;-73
2023/05/04 00:02:35;;;;;;;;;10.00;9.67;;;;;-147.17;100.00;19171.84;5074824;27;50903;-73
2023/05/04 00:05:01;;;;;;;;;8.67;8.00;;;;;-147.17;100.00;19171.84;5074299;28;51708;-73
2023/05/04 00:07:26;;;;;;;;;10.33;9.33;;;;;-147.17;100.00;18671.91;5074664;28;51607;-73
2023/05/04 00:09:52;;;;;;;;;10.33;9.00;;;;;-147.17;100.00;18172.06;5059623;27;51058;-73
2023/05/04 00:12:17;;;;;;;;;10.67;10.67;;;;;-147.17;100.00;17172.50;5065322;28;51444;-73
2023/05/04 00:14:43;;;;;;;;;10.00;9.00;;;;;-147.17;100.00;17172.50;5070430;27;51837;-73
2023/05/04 00:17:08;;;;;;;;;8.00;7.33;;;;;-147.17;100.00;16922.66;5072852;28;51175;-73
2023/05/04 00:19:38;;;;;;;;;9.00;9.00;;;;;-147.17;100.00;15673.69;5066256;28;50984;-73
2023/05/04 00:22:03;;;;;;;;;10.00;9.00;;;;;-147.17;100.00;15174.22;5066325;28;50984;-73
2023/05/04 00:24:28;;;;;;;;;9.00;8.67;;;;;-147.17;100.00;14674.81;5074794;28;51871;-73
2023/05/04 00:26:54;;;;;;;;;6.33;6.00;;;;;-147.17;100.00;14425.13;5074117;28;51251;-73
2023/05/04 00:29:19;;;;;;;;;9.00;7.67;;;;;-147.17;100.00;13925.81;5074296;28;51063;-73
2023/05/04 00:31:45;;;;;;;;;11.00;11.00;;;;;-147.17;100.00;14175.44;5075365;28;50959;-73
2023/05/04 00:34:10;;;;;;;;;8.33;8.33;;;;;-147.17;100.00;13426.53;5071444;27;51073;-73
2023/05/04 00:36:35;;;;;;;;;11.00;10.00;;;;;-147.17;100.00;13176.94;5074247;28;57714;-72
2023/05/04 00:39:01;;;;;;;;;10.00;9.00;;;;;-147.17;100.00;12927.34;5069061;28;51141;-73
2023/05/04 00:41:26;;;;;;;;;9.67;9.00;;;;;-147.17;100.00;12677.78;5060229;28;51077;-74
2023/05/04 00:43:52;;;;;;;;;10.00;9.67;;;;;-147.17;100.00;12428.22;5054924;28;51922;-73
2023/05/04 00:46:17;;;;;;;;;8.33;8.33;;;;;-147.17;100.00;11679.66;5056788;28;51189;-73
2023/05/04 00:48:46;;;;;;;;;10.00;10.00;;;;;-147.17;100.00;11180.69;5071978;28;53271;-73
2023/05/04 00:51:14;;;;;;;;;9.00;8.00;;;;;-147.17;100.00;10432.38;5074022;27;51319;-73
2023/05/04 00:53:40;;;;;;;;;10.00;10.00;;;;;-147.17;100.00;9933.56;5074846;28;50899;-73
2023/05/04 00:56:06;;;;;;;;;12.50;10.75;;;;;-147.17;100.00;9434.84;5074118;28;51040;-72
2023/05/04 00:58:32;;;;;;;;;9.33;9.33;;;;;-147.17;100.00;9185.47;5072665;28;51116;-73
2023/05/04 01:00:57;;;;;;;;;9.67;8.33;;;;;-147.17;100.00;8686.84;5074609;27;51012;-73
2023/05/04 01:03:24;;;;;;;;;8.67;8.33;;;;;-147.17;100.00;8437.53;5066639;28;51043;-73
2023/05/04 01:06:12;;;;;;;;;9.00;9.00;;;;;-147.17;100.00;7689.75;5065876;28;51191;-73
2023/05/04 01:08:44;;;;;;;;;9.67;9.00;;;;;-147.17;100.00;7191.28;5073885;28;50992;-73
2023/05/04 01:11:14;;;;;;;;;12.00;12.00;;;;;-147.17;100.00;6692.91;5060092;28;51278;-74
2023/05/04 01:13:41;;;;;;;;;10.33;10.00;;;;;-147.17;100.00;6194.59;5072741;27;51020;-74
2023/05/04 01:16:07;;;;;;;;;12.00;12.00;;;;;-147.17;100.00;5447.22;5074002;27;51203;-73
2023/05/04 01:18:32;;;;;;;;;11.00;11.00;;;;;-147.17;100.00;4700.00;5073851;27;51107;-73
2023/05/04 01:20:58;;;;;;;;;10.67;10.33;;;;;-147.17;100.00;4700.00;5071956;28;51222;-74
2023/05/04 01:23:23;;;;;;;;;11.33;11.33;;;;;-147.17;100.00;4201.94;5071949;27;56636;-74
2023/05/04 01:26:00;;;;;;;;;12.00;10.00;;;;;-147.17;100.00;3703.94;5074302;28;51013;-74
2023/05/04 01:28:40;;;;;;;;;11.33;10.00;;;;;-147.17;100.00;2708.13;5065941;28;51128;-74
2023/05/04 01:31:08;;;;;;;;;12.33;12.00;;;;;-147.17;100.00;2210.31;5063586;28;52622;-74
2023/05/04 01:33:35;;;;;;;;;9.67;9.67;;;;;-147.17;100.00;1463.72;5061652;28;51753;-74
2023/05/04 01:36:01;;;;;;;;;12.00;11.00;;;;;-147.17;100.00;1214.91;5073315;27;51138;-74
2023/05/04 01:38:27;;;;;;;;;8.67;8.00;;;;;-147.17;100.00;468.50;5068089;27;51384;-73
2023/05/04 01:40:52;;;;;;;;;8.33;8.00;;;;;-147.17;100.00;219.72;5068105;27;50961;-74
2023/05/04 01:43:18;;;;;;;;;11.00;10.00;;;;;-147.17;100.00;-526.47;5072597;27;51226;-74
2023/05/04 01:45:43;;;;;;;;;11.25;11.00;;;;;-147.17;100.00;-1023.88;5071423;28;51099;-73
2023/05/04 01:48:08;;;;;;;;;12.75;11.00;;;;;-147.17;100.00;-1272.53;5059589;27;51106;-74
2023/05/04 01:50:34;;;;;;;;;12.75;12.00;;;;;-147.17;100.00;-1769.84;5069362;27;51080;-74
2023/05/04 01:52:59;;;;;;;;;11.75;11.00;;;;;-147.17;100.00;-2267.06;5068612;28;52791;-74
2023/05/04 01:55:25;;;;;;;;;10.00;9.00;;;;;-147.17;100.00;-3261.34;5063591;27;51154;-73
2023/05/04 01:57:50;;;;;;;;;14.00;12.00;;;;;-147.17;100.00;-3509.84;5052824;28;50952;-74
2023/05/04 02:00:16;;;;;;;;;11.50;10.75;;;;;-147.17;100.00;-3509.84;5072856;28;50901;-74
2023/05/04 02:02:42;;;;;;;;;14.50;13.00;;;;;-147.17;100.00;-4006.88;5070456;27;52633;-74
2023/05/04 02:05:07;;;;;;;;;12.50;11.75;;;;;-147.17;100.00;-4006.88;5072920;28;51384;-73
2023/05/04 02:07:33;;;;;;;;;11.00;9.75;;;;;-147.17;100.00;-4503.81;5071109;27;51298;-73
2023/05/04 02:09:58;;;;;;;;;14.50;12.00;;;;;-147.17;100.00;-4752.25;5070964;28;51209;-74
2023/05/04 02:12:23;;;;;;;;;9.75;9.50;;;;;-147.17;100.00;-5249.09;5072076;27;55204;-73
2023/05/04 02:14:49;;;;;;;;;12.75;12.00;;;;;-147.17;100.00;-5497.50;5072053;27;51011;-73
2023/05/04 02:17:14;;;;;;;;;10.75;10.00;;;;;-147.17;100.00;-5994.25;5069798;28;51319;-73
2023/05/04 02:19:39;;;;;;;;;14.00;11.50;;;;;-147.17;100.00;-6242.59;5059465;28;51095;-75
2023/05/04 02:22:05;;;;;;;;;15.50;14.50;;;;;-147.17;100.00;-6242.59;5063860;28;51923;-74
2023/05/04 02:24:30;;;;;;;;;14.00;13.00;;;;;-147.17;100.00;-6739.25;5073412;28;50974;-74
2023/05/04 02:26:55;;;;;;;;;16.75;14.75;;;;;-147.17;100.00;-6739.25;5070574;28;51107;-72
2023/05/04 02:29:21;;;;;;;;;12.25;12.00;;;;;-147.17;100.00;-7484.09;5071505;28;51106;-74
2023/05/04 02:31:46;;;;;;;;;13.67;12.00;;;;;-147.17;100.00;-7732.34;5071024;27;51632;-74
2023/05/04 02:34:11;;;;;;;;;11.50;11.50;;;;;-147.17;100.00;-7732.34;5062918;28;51213;-74
2023/05/04 02:36:37;;;;;;;;;14.25;13.00;;;;;-147.17;100.00;-7980.59;5073417;27;51216;-74
2023/05/04 02:39:02;;;;;;;;;12.00;12.00;;;;;-147.17;100.00;-8477.03;5066779;28;51277;-73
2023/05/04 02:41:27;;;;;;;;;14.00;13.00;;;;;-147.17;100.00;-8477.03;5056918;28;53662;-73
2023/05/04 02:43:52;;;;;;;;;11.50;11.00;;;;;-147.17;100.00;-8477.03;5060881;28;51013;-72
2023/05/04 02:46:21;;;;;;;;;15.75;14.75;;;;;-147.17;100.00;-8973.38;5069650;28;51341;-73
2023/05/04 02:48:46;;;;;;;;;12.75;12.00;;;;;-147.17;100.00;-9221.53;5071628;28;51177;-73
2023/05/04 02:51:11;;;;;;;;;8.00;8.00;;;;;-147.17;100.00;-9469.69;5088467;27;52808;-73
2023/05/04 02:53:37;;;;;;;;;16.75;16.00;;;;;-147.17;100.00;-9221.53;5072632;28;50877;-73
2023/05/04 02:56:02;;;;;;;;;13.00;12.25;;;;;-147.17;100.00;-9717.81;5072733;28;50935;-73
2023/05/04 02:58:27;;;;;;;;;12.75;12.50;;;;;-147.17;100.00;-9965.91;5071528;28;51333;-73
2023/05/04 03:00:54;;;;;;;;;12.00;12.00;;;;;-147.17;100.00;-9965.91;5057684;27;50919;-73
2023/05/04 03:03:20;;;;;;;;;12.50;12.50;;;;;-147.17;100.00;-10462.09;5063491;27;51170;-73
2023/05/04 03:05:45;;;;;;;;;17.25;14.25;;;;;-147.17;100.00;-10462.09;5072522;27;51111;-73
2023/05/04 03:08:11;;;;;;;;;11.50;11.50;;;;;-147.17;100.00;-10958.19;5076075;28;51374;-73
2023/05/04 03:10:36;;;;;;;;;11.75;11.75;;;;;-147.17;100.00;-11206.22;5076265;27;51898;-73
2023/05/04 03:13:04;;;;;;;;;15.00;14.25;;;;;-147.17;100.00;-11206.22;5076293;27;51138;-73
2023/05/04 03:15:33;;;;;;;;;13.00;12.75;;;;;-147.17;100.00;-11206.22;5076186;28;51195;-73
2023/05/04 03:17:58;;;;;;;;;13.00;13.00;;;;;-147.17;100.00;-11702.25;5076633;27;51323;-73
2023/05/04 03:20:23;;;;;;;;;11.25;11.25;;;;;-147.17;100.00;-11702.25;5074395;28;52001;-73
2023/05/04 03:22:49;;;;;;;;;9.75;9.25;;;;;-147.17;100.00;-11702.25;5076509;28;50978;-73
2023/05/04 03:25:14;;;;;;;;;15.75;15.25;;;;;-147.17;100.00;-11950.22;5076196;28;50954;-73
2023/05/04 03:27:40;;;;;;;;;13.25;12.00;;;;;-147.17;100.00;-12198.19;5075239;28;51449;-73
2023/05/04 03:30:06;;;;;;;;;14.50;12.50;;;;;-147.17;100.00;-12198.19;5076037;28;51749;-73
2023/05/04 03:32:32;;;;;;;;;13.00;13.00;;;;;-147.17;100.00;-12198.19;5075154;28;51015;-73
2023/05/04 03:34:57;;;;;;;;;13.00;13.00;;;;;-147.17;100.00;-12198.19;5074063;28;51289;-73
2023/05/04 03:37:23;;;;;;;;;13.00;12.75;;;;;-147.17;100.00;-12446.13;5076491;27;51083;-72
2023/05/04 03:39:48;;;;;;;;;13.50;13.50;;;;;-147.17;100.00;-12198.19;5074867;28;51731;-72
2023/05/04 03:42:14;;;;;;;;;13.75;12.50;;;;;-147.17;100.00;-12694.06;5057509;28;51120;-74
2023/05/04 03:44:39;;;;;;;;;15.00;14.00;;;;;-147.17;100.00;-12694.06;5076030;28;51282;-74
2023/05/04 03:47:05;;;;;;;;;14.00;13.00;;;;;-147.17;100.00;-12694.06;5076143;28;51028;-73
2023/05/04 03:49:30;;;;;;;;;14.25;12.00;;;;;-147.17;100.00;-12694.06;5074844;28;52116;-74
2023/05/04 03:51:55;;;;;;;;;14.75;13.00;;;;;-147.17;100.00;-12941.97;5074233;27;51110;-73
2023/05/04 03:54:21;;;;;;;;;16.00;13.50;;;;;-147.17;100.00;-12941.97;5091423;27;51034;-73
2023/05/04 03:56:46;;;;;;;;;17.00;15.50;;;;;-147.17;100.00;-12941.97;5076090;28;50989;-72
2023/05/04 03:59:11;;;;;;;;;15.75;15.50;;;;;-147.17;100.00;-12941.97;5058984;28;57144;-74
2023/05/04 04:01:37;;;;;;;;;13.00;12.75;;;;;-147.17;100.00;-12941.97;5055227;28;55894;-72
2023/05/04 04:04:02;;;;;;;;;14.00;13.00;;;;;-147.17;100.00;-12941.97;5068653;28;51033;-72
2023/05/04 04:06:28;;;;;;;;;13.50;13.50;;;;;-147.17;100.00;-13189.88;5074550;28;50984;-72
2023/05/04 04:08:53;;;;;;;;;12.25;12.25;;;;;-147.17;100.00;-13189.88;5073689;28;51189;-75
2023/05/04 04:11:18;;;;;;;;;10.50;10.50;;;;;-147.17;100.00;-12941.97;5075994;28;51051;-74
2023/05/04 04:13:43;;;;;;;;;15.50;14.50;;;;;-147.17;100.00;-12941.97;5074240;27;50882;-74
2023/05/04 04:16:09;;;;;;;;;20.00;18.50;;;;;-147.17;100.00;-13189.88;5070626;28;51100;-75
2023/05/04 04:18:34;;;;;;;;;16.25;16.00;;;;;-147.17;100.00;-13189.88;5068227;28;51207;-73
2023/05/04 04:21:00;;;;;;;;;17.00;15.75;;;;;-147.17;100.00;-13189.88;5075349;28;51102;-74
2023/05/04 04:23:25;;;;;;;;;12.50;12.25;;;;;-147.17;100.00;-13437.75;5074145;28;51147;-74
2023/05/04 04:25:52;;;;;;;;;14.50;14.50;;;;;-147.17;100.00;-13437.75;5072742;27;51020;-73
2023/05/04 04:28:18;;;;;;;;;13.75;11.75;;;;;-147.17;100.00;-13437.75;5074109;28;51809;-74
2023/05/04 04:30:43;;;;;;;;;16.50;15.00;;;;;-147.17;100.00;-13437.75;5074336;28;51095;-74
2023/05/04 04:33:09;;;;;;;;;15.25;15.00;;;;;-147.17;100.00;-13437.75;5075227;27;51088;-74
2023/05/04 04:35:35;;;;;;;;;13.25;13.00;;;;;-147.17;100.00;-13437.75;5074788;28;51385;-73
2023/05/04 04:38:01;;;;;;;;;16.00;14.00;;;;;-147.17;100.00;-13685.63;5090653;27;53042;-74
2023/05/04 04:40:26;;;;;;;;;13.75;13.75;;;;;-147.17;100.00;-13685.63;5074519;28;51156;-73
2023/05/04 04:42:51;;;;;;;;;15.00;14.00;;;;;-147.17;100.00;-13933.50;5073734;28;51136;-74
2023/05/04 04:45:17;;;;;;;;;11.75;11.00;;;;;-147.17;100.00;-13933.50;5074187;27;51361;-74
2023/05/04 04:47:43;;;;;;;;;16.00;15.25;;;;;-147.17;100.00;-13933.50;5074595;28;51629;-73
2023/05/04 04:50:10;;;;;;;;;19.00;16.00;;;;;-147.17;100.00;-14181.31;5074410;28;50953;-75
2023/05/04 04:52:35;;;;;;;;;15.75;14.50;;;;;-147.17;100.00;-14181.31;5074679;28;51102;-74
2023/05/04 04:55:01;;;;;;;;;17.25;16.25;;;;;-147.17;100.00;-14429.16;5074497;27;51293;-74
2023/05/04 04:57:27;;;;;;;;;15.25;14.25;;;;;-147.17;100.00;-14429.16;5072237;27;52768;-74
2023/05/04 04:59:52;;;;;;;;;13.50;13.00;;;;;-147.17;100.00;-14676.94;5073961;28;50936;-72
2023/05/04 05:02:21;;;;;;;;;16.00;16.00;;;;;-147.17;100.00;-14924.75;5072529;28;57286;-73
2023/05/04 05:04:47;;;;;;;;;17.50;17.50;;;;;-147.17;100.00;-14924.75;5064534;28;50927;-74
2023/05/04 05:07:13;;;;;;;;;15.75;13.75;;;;;-147.17;100.00;-15172.50;5073891;28;51026;-72
2023/05/04 05:09:38;;;;;;;;;13.50;13.50;;;;;-147.17;100.00;-15172.50;5074159;28;50965;-73
2023/05/04 05:12:04;;;;;;;;;11.50;11.50;;;;;-147.17;100.00;-15420.25;5073909;28;51211;-73
2023/05/04 05:14:33;;;;;;;;;17.50;16.50;;;;;-147.17;100.00;-15420.25;5073131;28;51383;-72
2023/05/04 05:16:59;;;;;;;;;11.00;11.00;;;;;-147.17;100.00;-15420.25;5073795;27;51210;-72
2023/05/04 05:19:24;;;;;;;;;16.50;16.25;;;;;-147.17;100.00;-15668.00;5074463;28;51121;-73
2023/05/04 05:21:50;;;;;;;;;17.00;15.25;;;;;-147.17;100.00;-15668.00;5073934;27;51170;-73
2023/05/04 05:24:16;;;;;;;;;9.75;9.75;;;;;-147.17;100.00;-15668.00;5073128;27;50905;-73
2023/05/04 05:26:41;;;;;;;;;16.75;16.75;;;;;-147.17;100.00;-15668.00;5073745;28;51786;-75
2023/05/04 05:29:07;;;;;;;;;15.50;15.00;;;;;-147.17;100.00;-15668.00;5073588;27;50976;-72
2023/05/04 05:31:32;;;;;;;;;17.00;16.00;;;;;-147.17;100.00;-15915.72;5072213;28;50921;-72
2023/05/04 05:33:57;;;;;;;;;15.50;14.25;;;;;-147.17;100.00;-15915.72;5074162;27;50939;-74
2023/05/04 05:36:23;;;;;;;;;15.50;15.00;;;;;-147.17;100.00;-15915.72;5088941;27;61098;-74
2023/05/04 05:38:48;;;;;;;;;17.50;15.25;;;;;-147.17;100.00;-15915.72;5089645;27;51110;-74
2023/05/04 05:41:14;;;;;;;;;15.50;15.50;;;;;-147.17;100.00;-15915.72;5073797;28;51178;-73
2023/05/04 05:43:40;;;;;;;;;17.50;15.50;;;;;-147.17;100.00;-15915.72;5072925;28;51504;-74
2023/05/04 05:46:05;;;;;;;;;16.00;16.00;;;;;-147.17;100.00;-15915.72;5070988;28;53095;-73
2023/05/04 05:48:31;;;;;;;;;14.50;13.50;;;;;-147.17;100.00;-15917.19;5073931;27;51092;-74
2023/05/04 05:50:56;;;;;;;;;12.75;12.75;;;;;-147.17;100.00;-15915.72;5072731;28;51000;-73
2023/05/04 05:53:21;;;;;;;;;19.00;18.50;;;;;-147.17;100.00;-15915.72;5073548;28;51378;-73
2023/05/04 05:55:47;;;;;;;;;18.00;17.25;;;;;-147.17;100.00;-15915.72;5073422;28;51963;-73
2023/05/04 05:58:12;;;;;;;;;18.75;18.00;;;;;-147.17;100.00;-15915.72;5073190;28;53714;-73
2023/05/04 06:00:38;;;;;;;;;21.50;20.00;;;;;-147.17;100.00;-15915.72;5072467;28;51238;-73
2023/05/04 06:03:03;;;;;;;;;20.75;17.50;;;;;-147.17;100.00;-15668.00;5069819;27;51186;-73
2023/05/04 06:05:28;;;;;;;;;16.00;15.75;;;;;-147.17;100.00;-15668.00;5063035;28;53728;-73
2023/05/04 06:07:54;;;;;;;;;18.50;16.50;;;;;-147.17;100.00;-15668.00;5057790;28;57627;-73
2023/05/04 06:10:19;;;;;;;;;17.00;15.00;;;;;-147.17;100.00;-15420.25;5069601;28;51063;-74
2023/05/04 06:12:44;;;;;;;;;17.50;16.00;;;;;-147.17;100.00;-14924.75;5071956;28;51250;-73
2023/05/04 06:15:11;;;;;;;;;12.00;11.75;;;;;-147.17;100.00;-14924.75;5072776;28;57092;-73
2023/05/04 06:17:37;;;;;;;;;19.00;16.25;;;;;-147.17;100.00;-14676.94;5071530;28;50976;-73
2023/05/04 06:20:02;;;;;;;;;16.25;15.00;;;;;-147.17;100.00;-14181.31;5068810;27;51422;-74
2023/05/04 06:22:28;;;;;;;;;17.75;15.75;;;;;-147.17;100.00;-14181.31;5088794;27;51059;-72
2023/05/04 06:24:53;;;;;;;;;15.75;14.75;;;;;-147.17;100.00;-13933.50;5072517;28;50913;-73
2023/05/04 06:27:18;;;;;;;;;12.00;12.00;;;;;-147.17;100.00;-13437.75;5071752;28;51095;-73
2023/05/04 06:29:45;;;;;;;;;14.50;14.50;;;;;-147.17;100.00;-13189.88;5073184;28;51123;-73
2023/05/04 06:32:10;;;;;;;;;18.25;18.00;;;;;-147.17;100.00;-12694.06;5069383;28;51309;-72
2023/05/04 06:34:36;;;;;;;;;16.50;14.50;;;;;-147.17;100.00;-12694.06;5070712;27;52155;-72
2023/05/04 06:37:02;;;;;;;;;19.75;17.75;;;;;-147.17;100.00;-12694.06;5072348;27;51009;-72
2023/05/04 06:39:27;;;;;;;;;15.50;15.00;;;;;-147.17;100.00;-12198.19;5072734;28;51057;-72
2023/05/04 06:41:54;;;;;;;;;14.00;14.00;;;;;-147.17;100.00;-11950.22;5070390;28;52196;-72
2023/05/04 06:44:20;;;;;;;;;15.75;15.00;;;;;-147.17;100.00;-11702.25;5072305;28;50988;-72
2023/05/04 06:46:45;;;;;;;;;18.25;17.00;;;;;-147.17;100.00;-11454.25;5072062;28;51030;-73
2023/05/04 06:49:11;;;;;;;;;17.50;17.00;;;;;-147.17;100.00;-11206.22;5072085;28;51051;-72
2023/05/04 06:51:37;;;;;;;;;16.75;16.00;;;;;-147.17;100.00;-10710.16;5071240;28;51245;-74
2023/05/04 06:54:03;;;;;;;;;16.25;16.00;;;;;-147.17;100.00;-10710.16;5083738;27;54048;-73
2023/05/04 06:56:28;;;;;;;;;16.00;15.00;;;;;-147.17;100.00;-10214.00;5071947;27;51026;-72
2023/05/04 06:58:54;;;;;;;;;17.50;17.50;;;;;-147.17;100.00;-9965.91;5069081;27;51586;-73
2023/05/04 07:01:20;;;;;;;;;17.00;15.75;;;;;-147.17;100.00;-9221.53;5053080;28;51128;-73
2023/05/04 07:03:45;;;;;;;;;15.00;14.75;;;;;-147.17;100.00;-8477.03;5051406;28;51025;-72
2023/05/04 07:06:11;;;;;;;;;16.25;15.75;;;;;-147.17;100.00;-8228.81;5059321;28;51298;-70
2023/05/04 07:08:36;;;;;;;;;14.00;14.00;;;;;-147.17;100.00;-7980.59;5069550;28;51346;-70
2023/05/04 07:11:01;;;;;;;;;17.00;15.50;;;;;-147.17;100.00;-7980.59;5070334;28;51167;-70
2023/05/04 07:13:27;;;;;;;;;18.25;16.25;;;;;-147.17;100.00;-7235.84;5065919;27;51205;-71
2023/05/04 07:15:52;;;;;;;;;18.00;18.00;;;;;-147.17;100.00;-6739.25;5068227;27;51253;-72
2023/05/04 07:18:17;;;;;;;;;13.25;12.50;;;;;-147.17;100.00;-6490.94;5071558;27;51079;-72
2023/05/04 07:20:43;;;;;;;;;13.75;13.50;;;;;-147.17;100.00;-5994.25;5077708;27;51483;-72
2023/05/04 07:23:08;;;;;;;;;14.25;14.25;;;;;-147.17;100.00;-5497.50;5065950;28;51433;-72
2023/05/04 07:25:34;;;;;;;;;8.50;7.50;;;;;-147.17;100.00;-5000.69;5064076;27;52143;-70
2023/05/04 07:27:59;;;;;;;;;13.75;13.75;;;;;-147.17;100.00;-4255.34;5069163;28;51268;-70
2023/05/04 07:30:25;;;;;;;;;15.25;14.00;;;;;-147.17;100.00;-4503.81;5068169;27;51201;-70
2023/05/04 07:32:50;;;;;;;;;17.50;16.75;;;;;-147.17;100.00;-4255.34;5071846;28;52194;-70
2023/05/04 07:35:16;;;;;;;;;13.75;13.00;;;;;-147.17;100.00;-4503.81;5071564;28;51004;-70
2023/05/04 07:37:41;;;;;;;;;15.00;14.00;;;;;-147.17;100.00;-4255.34;5087943;27;51283;-71
2023/05/04 07:40:07;;;;;;;;;13.25;12.00;;;;;-147.17;100.00;-4006.88;5070509;27;51146;-71
2023/05/04 07:42:33;;;;;;;;;16.25;16.25;;;;;-147.17;100.00;-3758.38;5070466;28;53784;-71
2023/05/04 07:44:59;;;;;;;;;18.00;18.00;;;;;-147.17;100.00;-4255.34;5054530;28;51078;-71
2023/05/04 07:47:25;;;;;;;;;16.50;16.50;;;;;-147.17;100.00;-4006.88;5070632;28;51158;-72
2023/05/04 07:49:51;;;;;;;;;15.00;14.50;;;;;-147.17;100.00;-4255.34;5071554;27;51220;-72
2023/05/04 07:52:16;;;;;;;;;17.50;17.50;;;;;-147.17;100.00;-3758.38;5071660;28;51776;-72
2023/05/04 07:54:41;;;;;;;;;15.25;15.00;;;;;-147.17;100.00;-3261.34;5075488;28;51064;-72
2023/05/04 07:57:07;;;;;;;;;14.50;13.75;;;;;-147.17;100.00;-3509.84;5074004;28;51639;-72
2023/05/04 07:59:32;;;;;;;;;16.50;15.50;;;;;-147.17;100.00;-3758.38;5071504;27;51178;-73
2023/05/04 08:01:58;;;;;;;;;17.25;17.25;;;;;-147.17;100.00;-3758.38;5063636;28;51041;-73
2023/05/04 08:04:23;;;;;;;;;15.75;15.75;;;;;-147.17;100.00;-3509.84;5071070;28;51071;-73
2023/05/04 08:06:49;;;;;;;;;17.75;16.75;;;;;-147.17;100.00;-3509.84;5074547;28;54246;-73
2023/05/04 08:09:15;;;;;;;;;17.00;16.50;;;;;-147.17;100.00;-2764.22;5090664;27;50981;-73
2023/05/04 08:11:41;;;;;;;;;15.50;15.50;;;;;-147.17;100.00;-2267.06;5074776;28;51130;-73
2023/05/04 08:14:07;;;;;;;;;20.25;19.75;;;;;-147.17;100.00;-1272.53;5073692;28;51176;-74
2023/05/04 08:16:32;;;;;;;;;21.50;19.25;;;;;-147.17;100.00;-1521.19;5074597;27;50902;-72
2023/05/04 08:18:58;;;;;;;;;23.50;21.75;;;;;-147.17;100.00;-1272.53;5074951;27;51080;-73
2023/05/04 08:21:24;;;;;;;;;15.25;15.25;;;;;-147.17;100.00;-526.47;5090207;27;53095;-75
2023/05/04 08:23:50;;;;;;;;;16.50;16.50;;;;;-147.17;100.00;-775.19;5074950;28;50917;-73
2023/05/04 08:26:15;;;;;;;;;16.25;15.50;;;;;-147.17;100.00;-775.19;5074871;28;51262;-72
2023/05/04 08:28:41;;;;;;;;;17.25;17.25;;;;;-147.17;100.00;-526.47;5073309;28;51206;-71
2023/05/04 08:31:06;;;;;;;;;17.33;16.67;;;;;-147.17;100.00;-277.75;5074644;27;51606;-73
2023/05/04 08:33:33;;;;;;;;;15.67;15.67;;;;;-147.17;100.00;219.72;5082468;27;51150;-72
2023/05/04 08:35:58;;;;;;;;;16.00;16.00;;;;;-147.17;100.00;1463.72;5074703;28;51237;-72
2023/05/04 08:38:24;;;;;;;;;14.25;14.25;;;;;-147.17;100.00;2957.06;5074714;28;51146;-72
2023/05/04 08:40:49;;;;;;;;;14.50;13.75;;;;;-147.17;100.00;3703.94;5074070;28;52034;-72
2023/05/04 08:43:15;;;;;;;;;14.67;14.67;;;;;-147.17;100.00;3703.94;5073670;28;51237;-74
2023/05/04 08:45:41;;;;;;;;;15.00;14.00;;;;;-147.17;100.00;4450.97;5072630;28;51102;-73
2023/05/04 08:48:07;;;;;;;;;13.33;13.00;;;;;-147.17;100.00;4201.94;5070029;28;51075;-77
2023/05/04 08:50:35;;;;;;;;;14.67;14.33;;;;;-147.17;100.00;4201.94;5073147;28;52357;-78
2023/05/04 08:53:04;;;;;;;;;15.67;14.33;;;;;-147.17;100.00;4949.06;5073515;27;51148;-75
2023/05/04 08:55:32;;;;;;;;;15.50;15.50;;;;;-147.17;100.00;5447.22;5075001;27;51185;-75
2023/05/04 08:58:01;;;;;;;;;17.50;16.75;;;;;-147.17;100.00;4949.06;5063280;28;51363;-74
2023/05/04 09:00:27;;;;;;;;;15.50;15.50;;;;;-147.17;100.00;5696.34;5065098;27;52100;-75
2023/05/04 09:02:54;;;;;;;;;16.33;15.33;;;;;-147.17;100.00;5945.44;5052997;28;51073;-76
2023/05/04 09:07:51;;;;;;;;;17.25;16.75;;;;;-147.17;100.00;6443.75;5343913;22;53405;-72
2023/05/04 09:10:18;;;;;;;;;15.50;15.00;;;;;-147.17;100.00;6194.59;5376983;22;51384;-73
2023/05/04 09:12:43;;;;;;;;;16.67;16.00;;;;;-147.17;100.00;5945.44;5054237;28;51169;-76
2023/05/04 09:15:19;;;;;;;;;14.00;13.00;;;;;-147.17;100.00;5945.44;5069722;28;51189;-71
2023/05/04 09:17:57;;;;;;;;;16.75;16.75;;;;;-147.17;100.00;6194.59;5054502;28;51188;-76
2023/05/04 09:20:22;;;;;;;;;16.00;15.25;;;;;-147.17;100.00;5696.34;5063557;28;51004;-74
2023/05/04 09:22:59;;;;;;;;;14.75;14.75;;;;;-147.17;100.00;6443.75;5057284;28;51126;-74
2023/05/04 09:25:25;;;;;;;;;15.25;15.25;;;;;-147.17;100.00;7191.28;5073667;28;51216;-71
2023/05/04 09:27:53;;;;;;;;;15.50;15.00;;;;;-147.17;100.00;6942.09;5071478;28;50910;-70
2023/05/04 09:30:22;;;;;;;;;13.00;12.00;;;;;-147.17;100.00;6942.09;5067384;28;50927;-70
2023/05/04 09:32:48;;;;;;;;;12.25;12.25;;;;;-147.17;100.00;7440.50;5071326;28;51158;-70
2023/05/04 09:35:15;;;;;;;;;13.00;13.00;;;;;-147.17;100.00;8437.53;5071739;27;51176;-70
2023/05/04 09:37:47;;;;;;;;;17.25;16.50;;;;;-147.17;100.00;7440.50;5062602;28;51376;-70
2023/05/04 09:40:13;;;;;;;;;14.00;14.00;;;;;-147.17;100.00;7440.50;5070157;28;51389;-68
2023/05/04 09:42:39;;;;;;;;;16.50;15.00;;;;;-147.17;100.00;7191.28;5036169;28;51074;-69
2023/05/04 09:45:06;;;;;;;;;14.33;13.33;;;;;-147.17;100.00;8188.25;5065669;28;51192;-68
2023/05/04 09:47:37;;;;;;;;;14.50;14.50;;;;;-147.17;100.00;8936.16;5027849;28;51833;-69
2023/05/04 09:50:21;;;;;;;;;17.75;15.75;;;;;-147.17;100.00;10182.97;5060788;27;53150;-67
2023/05/04 09:52:49;;;;;;;;;15.00;14.75;;;;;-147.17;100.00;10432.38;5024912;28;51174;-70
2023/05/04 09:55:16;;;;;;;;;14.50;14.50;;;;;-147.17;100.00;9933.56;5070761;28;51067;-70
2023/05/04 09:57:44;;;;;;;;;15.00;13.75;;;;;-147.17;100.00;10182.97;5033723;28;51288;-69
2023/05/04 10:00:12;;;;;;;;;16.75;15.00;;;;;-147.17;100.00;9684.19;5051962;28;52285;-69
2023/05/04 10:02:39;;;;;;;;;15.00;14.00;;;;;-147.17;100.00;10681.81;5051098;28;51120;-70
2023/05/04 10:05:09;;;;;;;;;18.50;18.25;;;;;-147.17;100.00;11679.66;5041319;28;51189;-69
2023/05/04 10:07:35;;;;;;;;;12.67;12.00;;;;;-147.17;100.00;11929.16;5055259;27;51377;-69
2023/05/04 10:10:00;;;;;;;;;12.00;12.00;;;;;-147.17;100.00;11430.19;5066415;28;51881;-69
2023/05/04 10:12:26;;;;;;;;;14.25;13.75;;;;;-147.17;100.00;12927.34;5053344;28;51224;-69
2023/05/04 10:14:52;;;;;;;;;14.75;14.00;;;;;-147.17;100.00;13925.81;5052016;28;51149;-69
2023/05/04 10:17:51;;;;;;;;;13.25;12.50;;;;;-147.17;100.00;13676.16;5033635;28;51110;-69
2023/05/04 10:20:33;;;;;;;;;13.00;13.00;;;;;-147.17;100.00;15423.94;5061292;28;51785;-69
2023/05/04 10:23:24;;;;;;;;;13.00;12.50;;;;;-147.17;100.00;16173.25;5070944;28;51127;-69
2023/05/04 10:26:09;;;;;;;;;12.00;12.00;;;;;-147.17;100.00;15923.47;5066679;28;51107;-71
2023/05/04 10:28:47;;;;;;;;;15.00;14.25;;;;;-147.17;100.00;15174.22;5052839;28;51155;-71
2023/05/04 10:31:12;;;;;;;;;14.33;14.33;;;;;-147.17;100.00;14924.50;5034317;28;52815;-70
2023/05/04 10:33:42;;;;;;;;;18.75;17.75;;;;;-147.17;100.00;16672.84;5032529;28;51136;-69
2023/05/04 10:36:08;;;;;;;;;14.67;14.67;;;;;-147.17;100.00;17922.16;5060220;28;51060;-70
2023/05/04 10:38:35;;;;;;;;;11.67;11.67;;;;;-147.17;100.00;21922.59;5064864;28;51446;-69
2023/05/04 10:41:00;;;;;;;;;14.67;13.33;;;;;-147.17;100.00;21922.59;5052916;28;51341;-69
2023/05/04 10:43:29;;;;;;;;;13.00;12.67;;;;;-147.17;100.00;22172.75;5046956;28;51136;-70
2023/05/04 10:45:56;;;;;;;;;12.00;12.00;;;;;-147.17;100.00;26410.41;5072188;28;51053;-69
2023/05/04 10:48:33;;;;;;;;;13.00;13.00;;;;;-147.17;100.00;23924.38;5057287;28;51466;-70
2023/05/04 10:50:58;;;;;;;;;13.33;13.00;;;;;-147.17;100.00;24796.56;5060937;28;51360;-70
2023/05/04 10:53:31;;;;;;;;;15.00;15.00;;;;;-147.17;100.00;27191.16;5051810;28;51020;-70